sensor_id;sensor_type;location;lat;lon;timestamp;pressure;altitude;pressure_sealevel;temperature;humidity
55068;BME280;40965;52.368;9.712;2023-04-16T00:00:06;101003.56;;;8.83;100.00
55068;BME280;40965;52.368;9.712;2023-04-16T00:02:32;101005.31;;;8.86;100.00
55068;BME280;40965;52.368;9.712;2023-04-16T00:04:59;101007.06;;;8.88;100.00
55068;BME280;40965;52.368;9.712;2023-04-16T00:07:26;101006.22;;;8.89;100.00
55068;BME280;40965;52.368;9.712;2023-04-16T00:09:52;101007.94;;;8.89;100.00
55068;BME280;40965;52.368;9.712;2023-04-16T00:12:20;101005.31;;;8.87;100.00
55068;BME280;40965;52.368;9.712;2023-04-16T00:14:46;100996.59;;;8.84;100.00
55068;BME280;40965;52.368;9.712;2023-04-16T00:17:13;100997.47;;;8.80;100.00
55068;BME280;40965;52.368;9.712;2023-04-16T00:19:40;100998.31;;;8.75;100.00
55068;BME280;40965;52.368;9.712;2023-04-16T00:22:06;101002.66;;;8.72;100.00
55068;BME280;40965;52.368;9.712;2023-04-16T00:24:33;101001.78;;;8.71;100.00
55068;BME280;40965;52.368;9.712;2023-04-16T00:26:59;101002.66;;;8.69;100.00
55068;BME280;40965;52.368;9.712;2023-04-16T00:29:26;100998.28;;;8.65;100.00
55068;BME280;40965;52.368;9.712;2023-04-16T00:31:55;101004.38;;;8.65;100.00
55068;BME280;40965;52.368;9.712;2023-04-16T00:34:21;101000.00;;;8.63;100.00
55068;BME280;40965;52.368;9.712;2023-04-16T00:36:48;101001.75;;;8.62;100.00
55068;BME280;40965;52.368;9.712;2023-04-16T00:39:14;100991.28;;;8.59;100.00
55068;BME280;40965;52.368;9.712;2023-04-16T00:41:42;101000.84;;;8.58;100.00
55068;BME280;40965;52.368;9.712;2023-04-16T00:44:09;100999.09;;;8.56;100.00
55068;BME280;40965;52.368;9.712;2023-04-16T00:46:35;101003.44;;;8.51;100.00
55068;BME280;40965;52.368;9.712;2023-04-16T00:49:03;101009.50;;;8.51;100.00
55068;BME280;40965;52.368;9.712;2023-04-16T00:51:29;101012.13;;;8.51;100.00
55068;BME280;40965;52.368;9.712;2023-04-16T00:53:57;101011.25;;;8.52;100.00
55068;BME280;40965;52.368;9.712;2023-04-16T00:56:23;101014.75;;;8.53;100.00
55068;BME280;40965;52.368;9.712;2023-04-16T00:58:51;101019.97;;;8.54;100.00
55068;BME280;40965;52.368;9.712;2023-04-16T01:01:17;101021.72;;;8.55;100.00
55068;BME280;40965;52.368;9.712;2023-04-16T01:03:45;101022.59;;;8.53;100.00
55068;BME280;40965;52.368;9.712;2023-04-16T01:06:17;101025.16;;;8.51;100.00
55068;BME280;40965;52.368;9.712;2023-04-16T01:08:45;101019.06;;;8.51;100.00
55068;BME280;40965;52.368;9.712;2023-04-16T01:11:14;101032.97;;;8.47;100.00
55068;BME280;40965;52.368;9.712;2023-04-16T01:13:40;101039.00;;;8.41;100.00
55068;BME280;40965;52.368;9.712;2023-04-16T01:16:11;101033.75;;;8.36;100.00
55068;BME280;40965;52.368;9.712;2023-04-16T01:18:38;101035.47;;;8.34;100.00
55068;BME280;40965;52.368;9.712;2023-04-16T01:21:04;101046.78;;;8.33;100.00
55068;BME280;40965;52.368;9.712;2023-04-16T01:23:31;101047.63;;;8.31;100.00
55068;BME280;40965;52.368;9.712;2023-04-16T01:25:58;101048.50;;;8.31;100.00
55068;BME280;40965;52.368;9.712;2023-04-16T01:28:25;101047.66;;;8.34;100.00
55068;BME280;40965;52.368;9.712;2023-04-16T01:30:52;101044.19;;;8.33;100.00
55068;BME280;40965;52.368;9.712;2023-04-16T01:33:18;101054.59;;;8.33;100.00
55068;BME280;40965;52.368;9.712;2023-04-16T01:35:46;101049.34;;;8.30;100.00
55068;BME280;40965;52.368;9.712;2023-04-16T01:38:12;101048.50;;;8.28;100.00
55068;BME280;40965;52.368;9.712;2023-04-16T01:40:39;101058.88;;;8.23;100.00
55068;BME280;40965;52.368;9.712;2023-04-16T01:43:05;101061.47;;;8.22;100.00
55068;BME280;40965;52.368;9.712;2023-04-16T01:45:34;101062.34;;;8.21;100.00
55068;BME280;40965;52.368;9.712;2023-04-16T01:48:02;101065.78;;;8.17;100.00
55068;BME280;40965;52.368;9.712;2023-04-16T01:50:29;101064.03;;;8.16;100.00
55068;BME280;40965;52.368;9.712;2023-04-16T01:52:56;101063.16;;;8.14;100.00
55068;BME280;40965;52.368;9.712;2023-04-16T01:55:22;101061.41;;;8.11;100.00
55068;BME280;40965;52.368;9.712;2023-04-16T01:57:49;101063.09;;;8.06;100.00
55068;BME280;40965;52.368;9.712;2023-04-16T02:00:16;101069.16;;;8.05;100.00
55068;BME280;40965;52.368;9.712;2023-04-16T02:02:43;101067.41;;;8.04;100.00
55068;BME280;40965;52.368;9.712;2023-04-16T02:05:10;101067.41;;;8.01;100.00
55068;BME280;40965;52.368;9.712;2023-04-16T02:07:36;101072.63;;;8.01;100.00
55068;BME280;40965;52.368;9.712;2023-04-16T02:10:03;101071.72;;;7.99;100.00
55068;BME280;40965;52.368;9.712;2023-04-16T02:12:31;101074.31;;;7.95;100.00
55068;BME280;40965;52.368;9.712;2023-04-16T02:14:57;101074.31;;;7.94;100.00
55068;BME280;40965;52.368;9.712;2023-04-16T02:17:24;101065.59;;;7.92;100.00
55068;BME280;40965;52.368;9.712;2023-04-16T02:19:51;101064.69;;;7.90;100.00
55068;BME280;40965;52.368;9.712;2023-04-16T02:22:17;101068.13;;;7.86;100.00
55068;BME280;40965;52.368;9.712;2023-04-16T02:24:44;101070.72;;;7.84;100.00
55068;BME280;40965;52.368;9.712;2023-04-16T02:27:10;101076.81;;;7.85;100.00
55068;BME280;40965;52.368;9.712;2023-04-16T02:29:36;101075.03;;;7.82;100.00
55068;BME280;40965;52.368;9.712;2023-04-16T02:32:03;101076.78;;;7.80;100.00
55068;BME280;40965;52.368;9.712;2023-04-16T02:34:30;101074.19;;;7.82;100.00
55068;BME280;40965;52.368;9.712;2023-04-16T02:36:58;101081.13;;;7.80;100.00
55068;BME280;40965;52.368;9.712;2023-04-16T02:39:25;101079.38;;;7.80;100.00
55068;BME280;40965;52.368;9.712;2023-04-16T02:41:51;101077.63;;;7.77;100.00
55068;BME280;40965;52.368;9.712;2023-04-16T02:44:18;101088.03;;;7.74;100.00
55068;BME280;40965;52.368;9.712;2023-04-16T02:46:44;101091.47;;;7.72;100.00
55068;BME280;40965;52.368;9.712;2023-04-16T02:49:11;101086.22;;;7.69;100.00
55068;BME280;40965;52.368;9.712;2023-04-16T02:51:37;101091.41;;;7.66;100.00
55068;BME280;40965;52.368;9.712;2023-04-16T02:54:04;101097.47;;;7.66;100.00
55068;BME280;40965;52.368;9.712;2023-04-16T02:56:30;101102.69;;;7.65;100.00
55068;BME280;40965;52.368;9.712;2023-04-16T02:58:57;101100.91;;;7.59;100.00
55068;BME280;40965;52.368;9.712;2023-04-16T03:01:23;101105.22;;;7.58;100.00
55068;BME280;40965;52.368;9.712;2023-04-16T03:03:51;101110.41;;;7.55;100.00
55068;BME280;40965;52.368;9.712;2023-04-16T03:06:19;101108.63;;;7.53;100.00
55068;BME280;40965;52.368;9.712;2023-04-16T03:08:45;101106.03;;;7.53;100.00
55068;BME280;40965;52.368;9.712;2023-04-16T03:11:12;101121.66;;;7.50;100.00
55068;BME280;40965;52.368;9.712;2023-04-16T03:13:38;101108.56;;;7.45;100.00
55068;BME280;40965;52.368;9.712;2023-04-16T03:16:05;101106.81;;;7.44;100.00
55068;BME280;40965;52.368;9.712;2023-04-16T03:18:32;101110.28;;;7.44;100.00
55068;BME280;40965;52.368;9.712;2023-04-16T03:20:58;101112.84;;;7.43;100.00
55068;BME280;40965;52.368;9.712;2023-04-16T03:23:25;101113.75;;;7.42;100.00
55068;BME280;40965;52.368;9.712;2023-04-16T03:25:52;101118.91;;;7.40;100.00
55068;BME280;40965;52.368;9.712;2023-04-16T03:28:18;101122.41;;;7.41;100.00
55068;BME280;40965;52.368;9.712;2023-04-16T03:30:52;101121.50;;;7.39;100.00
55068;BME280;40965;52.368;9.712;2023-04-16T03:33:19;101120.66;;;7.40;100.00
55068;BME280;40965;52.368;9.712;2023-04-16T03:35:54;101116.28;;;7.39;100.00
55068;BME280;40965;52.368;9.712;2023-04-16T03:38:23;101115.41;;;7.37;100.00
55068;BME280;40965;52.368;9.712;2023-04-16T03:40:50;101116.25;;;7.33;100.00
55068;BME280;40965;52.368;9.712;2023-04-16T03:43:17;101109.28;;;7.32;100.00
55068;BME280;40965;52.368;9.712;2023-04-16T03:45:44;101114.47;;;7.30;100.00
55068;BME280;40965;52.368;9.712;2023-04-16T03:48:11;101113.56;;;7.26;100.00
55068;BME280;40965;52.368;9.712;2023-04-16T03:50:37;101118.75;;;7.25;100.00
55068;BME280;40965;52.368;9.712;2023-04-16T03:53:04;101117.00;;;7.24;100.00
55068;BME280;40965;52.368;9.712;2023-04-16T03:55:30;101116.97;;;7.22;100.00
55068;BME280;40965;52.368;9.712;2023-04-16T03:57:57;101117.00;;;7.25;100.00
55068;BME280;40965;52.368;9.712;2023-04-16T04:00:27;101109.19;;;7.25;100.00
55068;BME280;40965;52.368;9.712;2023-04-16T04:02:53;101115.31;;;7.27;100.00
55068;BME280;40965;52.368;9.712;2023-04-16T04:05:19;101110.94;;;7.25;100.00
55068;BME280;40965;52.368;9.712;2023-04-16T04:07:46;101117.84;;;7.23;100.00
55068;BME280;40965;52.368;9.712;2023-04-16T04:10:12;101122.22;;;7.24;100.00
55068;BME280;40965;52.368;9.712;2023-04-16T04:12:39;101121.31;;;7.23;100.00
55068;BME280;40965;52.368;9.712;2023-04-16T04:15:06;101117.84;;;7.23;100.00
55068;BME280;40965;52.368;9.712;2023-04-16T04:17:33;101125.66;;;7.23;100.00
55068;BME280;40965;52.368;9.712;2023-04-16T04:20:00;101128.28;;;7.24;100.00
55068;BME280;40965;52.368;9.712;2023-04-16T04:22:26;101129.19;;;7.26;100.00
55068;BME280;40965;52.368;9.712;2023-04-16T04:24:53;101136.16;;;7.27;100.00
55068;BME280;40965;52.368;9.712;2023-04-16T04:27:19;101146.59;;;7.31;100.00
55068;BME280;40965;52.368;9.712;2023-04-16T04:29:46;101145.72;;;7.30;100.00
55068;BME280;40965;52.368;9.712;2023-04-16T04:32:12;101140.50;;;7.30;100.00
55068;BME280;40965;52.368;9.712;2023-04-16T04:34:39;101147.50;;;7.33;100.00
55068;BME280;40965;52.368;9.712;2023-04-16T04:37:05;101150.94;;;7.32;100.00
55068;BME280;40965;52.368;9.712;2023-04-16T04:39:32;101146.63;;;7.34;100.00
55068;BME280;40965;52.368;9.712;2023-04-16T04:41:59;101148.38;;;7.35;100.00
55068;BME280;40965;52.368;9.712;2023-04-16T04:44:29;101147.53;;;7.36;100.00
55068;BME280;40965;52.368;9.712;2023-04-16T04:46:56;101151.00;;;7.38;100.00
55068;BME280;40965;52.368;9.712;2023-04-16T04:49:22;101149.22;;;7.35;100.00
55068;BME280;40965;52.368;9.712;2023-04-16T04:51:49;101160.53;;;7.34;100.00
55068;BME280;40965;52.368;9.712;2023-04-16T04:54:15;101161.38;;;7.33;100.00
55068;BME280;40965;52.368;9.712;2023-04-16T04:56:42;101160.56;;;7.37;100.00
55068;BME280;40965;52.368;9.712;2023-04-16T04:59:10;101165.78;;;7.39;100.00
55068;BME280;40965;52.368;9.712;2023-04-16T05:05:18;101168.44;;;7.43;100.00
55068;BME280;40965;52.368;9.712;2023-04-16T05:07:44;101168.47;;;7.45;100.00
55068;BME280;40965;52.368;9.712;2023-04-16T05:10:10;101177.13;;;7.44;100.00
55068;BME280;40965;52.368;9.712;2023-04-16T05:12:37;101174.53;;;7.44;100.00
55068;BME280;40965;52.368;9.712;2023-04-16T05:15:04;101183.25;;;7.46;100.00
55068;BME280;40965;52.368;9.712;2023-04-16T05:17:31;101182.34;;;7.45;100.00
55068;BME280;40965;52.368;9.712;2023-04-16T06:02:39;101210.63;;;7.85;100.00
55068;BME280;40965;52.368;9.712;2023-04-16T06:05:05;101225.44;;;7.88;100.00
55068;BME280;40965;52.368;9.712;2023-04-16T06:07:32;101229.81;;;7.92;100.00
55068;BME280;40965;52.368;9.712;2023-04-16T06:09:58;101219.38;;;7.92;100.00
55068;BME280;40965;52.368;9.712;2023-04-16T06:12:25;101227.28;;;7.97;100.00
55068;BME280;40965;52.368;9.712;2023-04-16T06:14:51;101236.88;;;8.01;100.00
55068;BME280;40965;52.368;9.712;2023-04-16T06:17:18;101230.81;;;8.03;100.00
55068;BME280;40965;52.368;9.712;2023-04-16T06:19:46;101234.25;;;7.99;100.00
55068;BME280;40965;52.368;9.712;2023-04-16T06:22:12;101237.72;;;8.00;100.00
55068;BME280;40965;52.368;9.712;2023-04-16T06:24:39;101234.25;;;8.01;100.00
55068;BME280;40965;52.368;9.712;2023-04-16T06:27:05;101237.81;;;8.09;100.00
55068;BME280;40965;52.368;9.712;2023-04-16T06:29:32;101243.94;;;8.13;100.00
55068;BME280;40965;52.368;9.712;2023-04-16T06:31:58;101248.25;;;8.10;100.00
55068;BME280;40965;52.368;9.712;2023-04-16T06:34:27;101245.66;;;8.12;100.00
55068;BME280;40965;52.368;9.712;2023-04-16T06:36:53;101248.34;;;8.18;100.00
55068;BME280;40965;52.368;9.712;2023-04-16T06:39:20;101251.00;;;8.21;100.00
55068;BME280;40965;52.368;9.712;2023-04-16T06:41:47;101249.34;;;8.28;100.00
55068;BME280;40965;52.368;9.712;2023-04-16T06:44:14;101258.00;;;8.27;100.00
55068;BME280;40965;52.368;9.712;2023-04-16T06:46:40;101252.78;;;8.27;100.00
55068;BME280;40965;52.368;9.712;2023-04-16T06:49:07;101260.63;;;8.28;100.00
55068;BME280;40965;52.368;9.712;2023-04-16T06:51:34;101263.28;;;8.33;100.00
55068;BME280;40965;52.368;9.712;2023-04-16T06:54:00;101258.94;;;8.35;100.00
55068;BME280;40965;52.368;9.712;2023-04-16T06:56:27;101253.78;;;8.38;100.00
55068;BME280;40965;52.368;9.712;2023-04-16T06:58:53;101258.16;;;8.42;100.00
55068;BME280;40965;52.368;9.712;2023-04-16T07:01:21;101262.53;;;8.45;100.00
55068;BME280;40965;52.368;9.712;2023-04-16T07:03:47;101266.94;;;8.49;100.00
55068;BME280;40965;52.368;9.712;2023-04-16T07:06:14;101267.81;;;8.48;100.00
55068;BME280;40965;52.368;9.712;2023-04-16T07:08:41;101270.47;;;8.54;100.00
55068;BME280;40965;52.368;9.712;2023-04-16T07:11:08;101269.63;;;8.57;100.00
55068;BME280;40965;52.368;9.712;2023-04-16T07:13:34;101274.84;;;8.57;100.00
55068;BME280;40965;52.368;9.712;2023-04-16T07:16:01;101278.31;;;8.57;100.00
55068;BME280;40965;52.368;9.712;2023-04-16T07:18:27;101276.63;;;8.61;100.00
55068;BME280;40965;52.368;9.712;2023-04-16T07:20:54;101283.63;;;8.67;100.00
55068;BME280;40965;52.368;9.712;2023-04-16T07:23:20;101285.38;;;8.66;100.00
55068;BME280;40965;52.368;9.712;2023-04-16T07:25:47;101281.00;;;8.64;100.00
55068;BME280;40965;52.368;9.712;2023-04-16T07:28:14;101278.41;;;8.64;100.00
55068;BME280;40965;52.368;9.712;2023-04-16T07:30:44;101288.84;;;8.64;100.00
55068;BME280;40965;52.368;9.712;2023-04-16T07:33:10;101293.19;;;8.63;100.00
55068;BME280;40965;52.368;9.712;2023-04-16T07:35:37;101287.97;;;8.63;100.00
55068;BME280;40965;52.368;9.712;2023-04-16T07:38:17;101294.06;;;8.65;100.00
55068;BME280;40965;52.368;9.712;2023-04-16T07:41:04;101295.88;;;8.72;100.00
55068;BME280;40965;52.368;9.712;2023-04-16T07:44:09;101298.53;;;8.78;100.00
55068;BME280;40965;52.368;9.712;2023-04-16T07:50:36;101312.53;;;8.85;99.29
55068;BME280;40965;52.368;9.712;2023-04-16T07:53:06;101302.09;;;8.87;99.79
55068;BME280;40965;52.368;9.712;2023-04-16T07:55:32;101309.09;;;8.89;99.53
55068;BME280;40965;52.368;9.712;2023-04-16T07:57:59;101310.84;;;8.92;99.41
55068;BME280;40965;52.368;9.712;2023-04-16T08:00:26;101308.25;;;8.95;99.39
55068;BME280;40965;52.368;9.712;2023-04-16T08:02:57;101306.59;;;9.05;99.21
55068;BME280;40965;52.368;9.712;2023-04-16T08:05:39;101323.25;;;9.21;98.95
55068;BME280;40965;52.368;9.712;2023-04-16T08:08:05;101324.22;;;9.32;97.69
55068;BME280;40965;52.368;9.712;2023-04-16T08:10:38;101324.28;;;9.40;97.61
55068;BME280;40965;52.368;9.712;2023-04-16T08:13:24;101329.50;;;9.46;97.04
55068;BME280;40965;52.368;9.712;2023-04-16T08:15:52;101332.16;;;9.51;96.81
55068;BME280;40965;52.368;9.712;2023-04-16T08:18:18;101330.47;;;9.56;95.91
55068;BME280;40965;52.368;9.712;2023-04-16T08:33:41;101336.72;;;9.87;94.13
55068;BME280;40965;52.368;9.712;2023-04-16T08:36:13;101337.59;;;9.89;94.19
55068;BME280;40965;52.368;9.712;2023-04-16T08:39:02;101345.47;;;9.96;93.59
55068;BME280;40965;52.368;9.712;2023-04-16T08:41:33;101347.28;;;10.06;93.52
55068;BME280;40965;52.368;9.712;2023-04-16T08:44:06;101349.06;;;10.19;93.36
55068;BME280;40965;52.368;9.712;2023-04-16T08:46:39;101353.53;;;10.37;92.46
55068;BME280;40965;52.368;9.712;2023-04-16T08:49:15;101357.91;;;10.49;91.46
55068;BME280;40965;52.368;9.712;2023-04-16T08:51:49;101354.44;;;10.52;91.50
55068;BME280;40965;52.368;9.712;2023-04-16T08:54:53;101353.56;;;10.48;90.42
55068;BME280;40965;52.368;9.712;2023-04-16T08:57:26;101365.75;;;10.40;90.76
55068;BME280;40965;52.368;9.712;2023-04-16T08:59:56;101361.31;;;10.30;91.51
55068;BME280;40965;52.368;9.712;2023-04-16T09:02:25;101361.28;;;10.20;91.92
55068;BME280;40965;52.368;9.712;2023-04-16T09:04:55;101363.91;;;10.16;92.50
55068;BME280;40965;52.368;9.712;2023-04-16T09:07:26;101356.00;;;10.09;92.58
55068;BME280;40965;52.368;9.712;2023-04-16T09:10:14;101355.13;;;10.04;92.76
55068;BME280;40965;52.368;9.712;2023-04-16T09:12:41;101360.34;;;10.03;92.41
55068;BME280;40965;52.368;9.712;2023-04-16T09:15:11;101357.72;;;10.04;92.83
55068;BME280;40965;52.368;9.712;2023-04-16T09:17:49;101358.63;;;10.14;93.31
55068;BME280;40965;52.368;9.712;2023-04-16T09:41:54;101383.66;;;9.61;96.27
55068;BME280;40965;52.368;9.712;2023-04-16T09:44:34;101393.19;;;9.57;96.94
55068;BME280;40965;52.368;9.712;2023-04-16T09:47:08;101387.06;;;9.54;96.75
55068;BME280;40965;52.368;9.712;2023-04-16T09:49:42;101395.75;;;9.51;97.26
55068;BME280;40965;52.368;9.712;2023-04-16T09:52:20;101394.91;;;9.49;97.24
55068;BME280;40965;52.368;9.712;2023-04-16T09:54:49;101398.38;;;9.48;97.53
55068;BME280;40965;52.368;9.712;2023-04-16T09:57:44;101396.59;;;9.46;98.01
55068;BME280;40965;52.368;9.712;2023-04-16T10:04:17;101401.78;;;9.41;99.01
55068;BME280;40965;52.368;9.712;2023-04-16T10:07:01;101408.75;;;9.42;99.78
55068;BME280;40965;52.368;9.712;2023-04-16T10:09:51;101404.38;;;9.38;100.00
55068;BME280;40965;52.368;9.712;2023-04-16T10:12:21;101398.28;;;9.37;100.00
55068;BME280;40965;52.368;9.712;2023-04-16T10:14:47;101402.63;;;9.38;100.00
55068;BME280;40965;52.368;9.712;2023-04-16T10:17:16;101411.34;;;9.37;100.00
55068;BME280;40965;52.368;9.712;2023-04-16T10:19:45;101414.81;;;9.35;100.00
55068;BME280;40965;52.368;9.712;2023-04-16T10:22:12;101412.16;;;9.33;100.00
55068;BME280;40965;52.368;9.712;2023-04-16T10:24:39;101415.63;;;9.29;100.00
55068;BME280;40965;52.368;9.712;2023-04-16T10:27:06;101412.09;;;9.22;100.00
55068;BME280;40965;52.368;9.712;2023-04-16T10:29:33;101417.28;;;9.19;100.00
55068;BME280;40965;52.368;9.712;2023-04-16T10:32:01;101418.09;;;9.14;100.00
55068;BME280;40965;52.368;9.712;2023-04-16T10:34:29;101424.16;;;9.11;100.00
55068;BME280;40965;52.368;9.712;2023-04-16T10:36:56;101425.91;;;9.12;100.00
55068;BME280;40965;52.368;9.712;2023-04-16T10:39:26;101425.88;;;9.07;100.00
55068;BME280;40965;52.368;9.712;2023-04-16T10:42:10;101429.34;;;9.05;100.00
55068;BME280;40965;52.368;9.712;2023-04-16T10:44:38;101430.13;;;8.96;100.00
55068;BME280;40965;52.368;9.712;2023-04-16T10:47:09;101433.56;;;8.93;100.00
55068;BME280;40965;52.368;9.712;2023-04-16T10:49:37;101426.66;;;8.97;100.00
55068;BME280;40965;52.368;9.712;2023-04-16T10:52:09;101422.34;;;9.02;100.00
55068;BME280;40965;52.368;9.712;2023-04-16T10:54:38;101439.78;;;9.05;100.00
55068;BME280;40965;52.368;9.712;2023-04-16T10:57:08;101430.22;;;9.05;100.00
55068;BME280;40965;52.368;9.712;2023-04-16T10:59:37;101427.59;;;9.04;100.00
55068;BME280;40965;52.368;9.712;2023-04-16T11:02:08;101427.59;;;9.02;100.00
55068;BME280;40965;52.368;9.712;2023-04-16T11:04:39;101430.22;;;9.05;100.00
55068;BME280;40965;52.368;9.712;2023-04-16T11:10:03;101431.22;;;9.18;100.00
55068;BME280;40965;52.368;9.712;2023-04-16T11:12:34;101432.97;;;9.21;100.00
55068;BME280;40965;52.368;9.712;2023-04-16T11:15:04;101434.66;;;9.13;100.00
55068;BME280;40965;52.368;9.712;2023-04-16T11:17:38;101434.59;;;9.08;100.00
55068;BME280;40965;52.368;9.712;2023-04-16T11:20:08;101434.56;;;9.05;100.00
55068;BME280;40965;52.368;9.712;2023-04-16T11:22:35;101438.03;;;9.05;100.00
55068;BME280;40965;52.368;9.712;2023-04-16T11:25:02;101438.03;;;9.05;100.00
55068;BME280;40965;52.368;9.712;2023-04-16T11:27:29;101439.72;;;9.00;100.00
55068;BME280;40965;52.368;9.712;2023-04-16T11:29:57;101438.91;;;9.04;100.00
55068;BME280;40965;52.368;9.712;2023-04-16T11:32:33;101443.28;;;9.07;100.00
55068;BME280;40965;52.368;9.712;2023-04-16T11:35:04;101441.63;;;9.15;100.00
55068;BME280;40965;52.368;9.712;2023-04-16T11:37:38;101441.72;;;9.24;100.00
55068;BME280;40965;52.368;9.712;2023-04-16T11:40:06;101442.59;;;9.28;100.00
55068;BME280;40965;52.368;9.712;2023-04-16T11:42:34;101446.09;;;9.27;100.00
55068;BME280;40965;52.368;9.712;2023-04-16T11:45:02;101450.50;;;9.31;100.00
55068;BME280;40965;52.368;9.712;2023-04-16T11:47:56;101454.03;;;9.36;100.00
55068;BME280;40965;52.368;9.712;2023-04-16T11:50:25;101456.63;;;9.38;100.00
55068;BME280;40965;52.368;9.712;2023-04-16T11:52:55;101451.44;;;9.42;100.00
55068;BME280;40965;52.368;9.712;2023-04-16T11:55:23;101448.94;;;9.52;100.00
55068;BME280;40965;52.368;9.712;2023-04-16T11:57:50;101450.72;;;9.60;100.00
55068;BME280;40965;52.368;9.712;2023-04-16T12:00:17;101455.13;;;9.66;100.00
55068;BME280;40965;52.368;9.712;2023-04-16T12:02:45;101451.75;;;9.78;100.00
55068;BME280;40965;52.368;9.712;2023-04-16T12:05:32;101455.38;;;9.99;100.00
55068;BME280;40965;52.368;9.712;2023-04-16T12:08:04;101460.72;;;10.22;100.00
55068;BME280;40965;52.368;9.712;2023-04-16T12:10:54;101454.72;;;10.35;100.00
55068;BME280;40965;52.368;9.712;2023-04-16T12:13:24;101453.91;;;10.50;100.00
55068;BME280;40965;52.368;9.712;2023-04-16T12:15:54;101457.47;;;10.62;100.00
55068;BME280;40965;52.368;9.712;2023-04-16T12:18:24;101450.50;;;10.71;100.00
55068;BME280;40965;52.368;9.712;2023-04-16T12:42:01;101461.72;;;10.38;100.00
55068;BME280;40965;52.368;9.712;2023-04-16T12:48:47;101457.38;;;10.49;100.00
55068;BME280;40965;52.368;9.712;2023-04-16T12:51:35;101454.81;;;10.52;100.00
55068;BME280;40965;52.368;9.712;2023-04-16T12:54:25;101464.41;;;10.59;100.00
55068;BME280;40965;52.368;9.712;2023-04-16T12:57:09;101454.00;;;10.70;100.00
55068;BME280;40965;52.368;9.712;2023-04-16T13:00:02;101461.91;;;10.90;100.00
55068;BME280;40965;52.368;9.712;2023-04-16T13:02:50;101460.19;;;11.08;100.00
55068;BME280;40965;52.368;9.712;2023-04-16T13:05:56;101453.28;;;11.47;100.00
55068;BME280;40965;52.368;9.712;2023-04-16T13:12:07;101448.66;;;12.62;98.56
55068;BME280;40965;52.368;9.712;2023-04-16T13:14:52;101451.13;;;12.95;94.72
55068;BME280;40965;52.368;9.712;2023-04-16T13:17:27;101451.72;;;13.37;93.30
55068;BME280;40965;52.368;9.712;2023-04-16T13:22:29;101450.34;;;13.95;90.85
55068;BME280;40965;52.368;9.712;2023-04-16T13:25:06;101452.72;;;14.20;88.85
55068;BME280;40965;52.368;9.712;2023-04-16T13:28:02;101453.44;;;14.31;86.13
55068;BME280;40965;52.368;9.712;2023-04-16T13:30:32;101452.50;;;14.38;86.18
55068;BME280;40965;52.368;9.712;2023-04-16T13:33:29;101448.16;;;14.34;85.99
55068;BME280;40965;52.368;9.712;2023-04-16T13:36:16;101445.66;;;14.22;85.28
55068;BME280;40965;52.368;9.712;2023-04-16T13:38:43;101450.44;;;13.84;85.55
55068;BME280;40965;52.368;9.712;2023-04-16T13:41:09;101442.00;;;13.48;87.25
55068;BME280;40965;52.368;9.712;2023-04-16T13:43:36;101446.50;;;13.29;87.87
55068;BME280;40965;52.368;9.712;2023-04-16T13:46:11;101437.81;;;13.18;89.65
55068;BME280;40965;52.368;9.712;2023-04-16T13:48:38;101438.59;;;13.34;88.93
55068;BME280;40965;52.368;9.712;2023-04-16T13:51:34;101432.91;;;13.82;86.62
55068;BME280;40965;52.368;9.712;2023-04-16T13:54:24;101434.69;;;14.59;83.40
55068;BME280;40965;52.368;9.712;2023-04-16T13:56:55;101437.16;;;14.71;81.23
55068;BME280;40965;52.368;9.712;2023-04-16T13:59:22;101435.53;;;14.60;78.36
55068;BME280;40965;52.368;9.712;2023-04-16T14:01:48;101430.66;;;14.30;79.98
55068;BME280;40965;52.368;9.712;2023-04-16T14:04:15;101434.75;;;14.53;80.49
55068;BME280;40965;52.368;9.712;2023-04-16T14:06:43;101433.47;;;14.86;79.44
55068;BME280;40965;52.368;9.712;2023-04-16T14:12:56;101439.09;;;14.55;78.92
55068;BME280;40965;52.368;9.712;2023-04-16T14:19:08;101432.81;;;14.69;78.29
55068;BME280;40965;52.368;9.712;2023-04-16T15:01:28;101448.22;;;13.32;80.23
55068;BME280;40965;52.368;9.712;2023-04-16T15:03:55;101444.75;;;13.27;80.68
55068;BME280;40965;52.368;9.712;2023-04-16T15:06:21;101442.16;;;13.23;81.33
55068;BME280;40965;52.368;9.712;2023-04-16T15:08:48;101448.34;;;13.19;81.22
55068;BME280;40965;52.368;9.712;2023-04-16T15:11:14;101447.50;;;13.10;81.39
55068;BME280;40965;52.368;9.712;2023-04-16T15:13:41;101446.66;;;13.06;82.49
55068;BME280;40965;52.368;9.712;2023-04-16T15:16:07;101441.38;;;13.09;81.85
55068;BME280;40965;52.368;9.712;2023-04-16T15:18:34;101449.22;;;13.14;81.52
55068;BME280;40965;52.368;9.712;2023-04-16T15:21:02;101449.22;;;13.17;81.19
55068;BME280;40965;52.368;9.712;2023-04-16T15:23:29;101455.38;;;13.11;81.38
55068;BME280;40965;52.368;9.712;2023-04-16T15:25:55;101451.00;;;13.10;80.12
55068;BME280;40965;52.368;9.712;2023-04-16T15:28:22;101449.28;;;13.06;80.99
55068;BME280;40965;52.368;9.712;2023-04-16T15:30:48;101451.06;;;13.01;81.15
55068;BME280;40965;52.368;9.712;2023-04-16T15:33:16;101452.81;;;13.02;80.98
55068;BME280;40965;52.368;9.712;2023-04-16T15:35:42;101461.59;;;12.98;81.62
55068;BME280;40965;52.368;9.712;2023-04-16T15:38:09;101462.53;;;12.89;81.62
55068;BME280;40965;52.368;9.712;2023-04-16T15:40:35;101459.13;;;12.68;81.07
55068;BME280;40965;52.368;9.712;2023-04-16T15:43:02;101469.78;;;12.37;81.99
55068;BME280;40965;52.368;9.712;2023-04-16T15:45:28;101463.72;;;12.14;83.49
55068;BME280;40965;52.368;9.712;2023-04-16T15:47:55;101471.59;;;11.95;84.01
55068;BME280;40965;52.368;9.712;2023-04-16T15:50:22;101473.34;;;11.85;83.78
55068;BME280;40965;52.368;9.712;2023-04-16T15:52:50;101472.47;;;11.86;84.14